Skip to main content.
 TIME   TEMPERATURE   WINDSPEED   DIRECTION   HUMIDITY   BAROMETER   RAINFALL 
5:10 22.0°C (71.6°F) 3.7 kmh (2.3 mph) NNW 88% 1019.0hPa (30.09 inHg) 0.0mm (0.00 in.)
4:10 23.0°C (73.4 °F) 1.9 kmh (1.2 mph) WNW 83% 1019.0hPa (30.09 inHg) 0.0mm (0.00 in.)
3:10 23.0°C (73.4 °F) 7.4 kmh (4.6 mph) NNW 83% 1019.0hPa (30.09 inHg) 0.0mm (0.00 in.)
2:10 23.0°C (73.4 °F) 5.6 kmh (3.5 mph) NNW 83% 1019.0hPa (30.09 inHg) 0.0mm (0.00 in.)
1:10 23.0°C (73.4 °F) 5.6 kmh (3.5 mph) W 83% 1020.0hPa (30.12 inHg) 0.0mm (0.00 in.)
0:10 24.0°C (75.2 °F) 1.9 kmh (1.2 mph) SW 78% 1020.0hPa (30.12 inHg) 0.0mm (0.00 in.)
23:10 24.0°C (75.2 °F) 3.7 kmh (2.3 mph) WSW 78% 1020.0hPa (30.12 inHg) 0.0mm (0.00 in.)
22:10 24.0°C (75.2 °F) 5.6 kmh (3.5 mph) SW 78% 1019.0hPa (30.09 inHg) 0.0mm (0.00 in.)
21:10 25.0°C (77.0 °F) 7.4 kmh (4.6 mph) SW 69% 1019.0hPa (30.09 inHg) 0.0mm (0.00 in.)
20:10 26.0°C (78.8 °F) 11.1 kmh (6.9 mph) SW 65% 1019.0hPa (30.09 inHg) 0.0mm (0.00 in.)
19:10 28.0°C (82.4 °F) 13.0 kmh (8.1 mph) NNE 61% 1017.9hPa (30.06 inHg) 0.0mm (0.00 in.)
18:10 28.0°C (82.4 °F) 9.3 kmh (5.8 mph) S 54% 1017.9hPa (30.06 inHg) 0.0mm (0.00 in.)
17:10 28.0°C (82.4 °F) 13.0 kmh (8.1 mph) SSW 58% 1019.0hPa (30.09 inHg) 0.0mm (0.00 in.)
16:10 28.0°C (82.4 °F) 14.8 kmh (9.2 mph) SW 61% 1019.0hPa (30.09 inHg) 0.0mm (0.00 in.)
15:10 28.0°C (82.4 °F) 11.1 kmh (6.9 mph) SW 61% 1019.0hPa (30.09 inHg) 0.0mm (0.00 in.)
14:10 28.0°C (82.4 °F) 14.8 kmh (9.2 mph) SW 65% 1019.0hPa (30.09 inHg) 0.0mm (0.00 in.)
13:10 27.0°C (80.6 °F) 11.1 kmh (6.9 mph) S 69% 1019.0hPa (30.09 inHg) 0.0mm (0.00 in.)
12:10 27.0°C (80.6 °F) 5.6 kmh (3.5 mph) SSW 69% 1019.0hPa (30.09 inHg) 0.0mm (0.00 in.)
11:10 26.0°C (78.8 °F) 11.1 kmh (6.9 mph) S 73% 1019.0hPa (30.09 inHg) 0.0mm (0.00 in.)
10:10 26.0°C (78.8 °F) 5.6 kmh (3.5 mph) NNE 65% 1017.9hPa (30.06 inHg) 0.0mm (0.00 in.)
9:10 25.0°C (77.0 °F) 5.6 kmh (3.5 mph) NE 78% 1017.9hPa (30.06 inHg) 0.0mm (0.00 in.)
8:10 23.0°C (73.4 °F) 5.6 kmh (3.5 mph) W 94% 1017.9hPa (30.06 inHg) 0.0mm (0.00 in.)
7:10 22.0°C (71.6 °F) 5.6 kmh (3.5 mph) WNW 94% 1016.9hPa (30.03 inHg) 0.0mm (0.00 in.)
6:10 21.0°C (69.8 °F) 7.4 kmh (4.6 mph) W 94% 1016.9hPa (30.03 inHg) 0.0mm (0.00 in.)